Time;durP1;ratioP1;P1;durP2;ratioP2;P2;SDS_P1;SDS_P2;PMS_P1;PMS_P2;Temp;Humidity;BMP_temperature;BMP_pressure;BME280_temperature;BME280_humidity;BME280_pressure;Samples;Min_cycle;Max_cycle;Signal;HPM_P1;HPM_P2
2022/04/07 00:01:08;;;;;;;5.72;1.65;;;12.90;81.30;;;;;;5036044;28;20423;-86
2022/04/07 00:03:34;;;;;;;10.60;2.10;;;12.90;81.40;;;;;;5040162;28;20147;-85
2022/04/07 00:06:01;;;;;;;8.60;1.70;;;12.90;81.50;;;;;;5048283;28;20129;-87
2022/04/07 00:08:27;;;;;;;9.40;1.67;;;12.90;81.50;;;;;;5031726;28;20072;-86
2022/04/07 00:10:53;;;;;;;10.10;1.90;;;12.80;81.80;;;;;;5016454;28;20030;-88
2022/04/07 00:13:19;;;;;;;9.30;1.73;;;12.70;81.90;;;;;;5016566;28;20026;-87
2022/04/07 00:15:45;;;;;;;7.03;2.13;;;12.80;81.80;;;;;;5031653;28;20083;-87
2022/04/07 00:18:10;;;;;;;9.15;2.55;;;12.80;82.00;;;;;;5016735;28;20460;-87
2022/04/07 00:20:36;;;;;;;8.05;2.22;;;12.80;81.70;;;;;;5029733;28;20034;-88
2022/04/07 00:23:03;;;;;;;10.52;2.28;;;12.80;81.80;;;;;;5031648;28;20044;-85
2022/04/07 00:25:30;;;;;;;9.88;2.03;;;12.80;81.90;;;;;;5048549;28;20112;-86
2022/04/07 00:27:56;;;;;;;12.20;2.33;;;12.70;82.20;;;;;;5034858;28;20053;-87
2022/04/07 00:30:22;;;;;;;8.02;2.15;;;12.70;82.40;;;;;;5031617;28;20022;-86
2022/04/07 00:32:49;;;;;;;10.68;2.08;;;12.50;82.90;;;;;;5015016;28;20022;-87
2022/04/07 00:35:16;;;;;;;5.85;1.70;;;12.50;83.80;;;;;;5014988;28;20076;-86
2022/04/07 00:37:41;;;;;;;9.82;2.25;;;12.50;83.90;;;;;;5015992;28;20041;-85
2022/04/07 00:40:10;;;;;;;14.68;3.28;;;12.50;84.20;;;;;;5047664;28;20080;-86
2022/04/07 00:42:50;;;;;;;8.35;1.92;;;12.40;84.60;;;;;;5016164;28;20034;-87
2022/04/07 00:45:17;;;;;;;9.40;1.85;;;12.40;85.10;;;;;;5014755;28;20026;-88
2022/04/07 00:47:44;;;;;;;9.02;2.38;;;12.40;85.00;;;;;;5016489;28;20402;-86
2022/04/07 00:50:15;;;;;;;7.13;2.67;;;12.40;85.20;;;;;;5034331;28;20025;-86
2022/04/07 00:52:44;;;;;;;9.68;2.20;;;12.40;85.10;;;;;;5036287;28;20029;-87
2022/04/07 00:55:10;;;;;;;12.35;2.25;;;12.50;85.10;;;;;;5034366;28;20092;-89
2022/04/07 00:57:39;;;;;;;8.48;2.13;;;12.50;84.90;;;;;;5030394;28;20076;-89
2022/04/07 01:00:09;;;;;;;10.48;2.30;;;12.50;84.90;;;;;;5024695;28;20037;-86
2022/04/07 01:02:36;;;;;;;10.18;2.47;;;12.50;85.00;;;;;;5016128;28;20036;-89
2022/04/07 01:05:06;;;;;;;10.05;2.25;;;12.60;84.80;;;;;;5014716;28;20030;-90
2022/04/07 01:07:37;;;;;;;6.50;2.22;;;12.60;84.90;;;;;;5019913;28;20504;-88
2022/04/07 01:10:04;;;;;;;9.15;2.00;;;12.60;84.80;;;;;;5035979;28;20040;-89
2022/04/07 01:12:29;;;;;;;12.18;2.30;;;12.70;84.50;;;;;;5034961;28;20022;-88
2022/04/07 01:14:59;;;;;;;6.97;1.90;;;12.80;84.40;;;;;;5034428;28;20104;-88
2022/04/07 01:17:25;;;;;;;5.30;1.90;;;12.80;84.50;;;;;;5034228;28;20029;-89
2022/04/07 01:19:51;;;;;;;5.18;1.65;;;12.80;84.70;;;;;;5036663;28;20029;-87
2022/04/07 01:22:18;;;;;;;4.82;1.40;;;12.70;84.90;;;;;;5031077;28;20026;-87
2022/04/07 01:24:43;;;;;;;2.83;1.30;;;12.70;85.00;;;;;;5015738;28;20034;-87
2022/04/07 01:27:11;;;;;;;7.57;1.63;;;12.60;85.20;;;;;;5015952;28;20018;-87
2022/04/07 01:29:38;;;;;;;3.40;1.00;;;12.60;85.10;;;;;;5015065;28;20025;-88
2022/04/07 01:32:45;;;;;;;2.42;1.10;;;12.50;85.20;;;;;;5032048;28;20018;-87
2022/04/07 01:35:12;;;;;;;3.90;1.20;;;12.50;85.00;;;;;;5025595;28;20053;-91
2022/04/07 01:37:40;;;;;;;1.80;0.98;;;12.50;85.20;;;;;;5020162;28;20077;-89
2022/04/07 01:40:07;;;;;;;1.67;0.73;;;12.50;84.70;;;;;;5019714;28;20169;-90
2022/04/07 01:42:36;;;;;;;1.15;0.65;;;12.40;85.00;;;;;;5019114;28;20076;-90
2022/04/07 01:45:04;;;;;;;2.10;0.90;;;12.40;84.60;;;;;;5020287;28;20090;-86
2022/04/07 01:47:31;;;;;;;0.90;0.50;;;12.40;84.90;;;;;;5026897;28;20018;-88
2022/04/07 01:50:07;;;;;;;0.95;0.60;;;12.30;84.70;;;;;;5036030;28;20029;-90
2022/04/07 01:52:35;;;;;;;1.65;0.60;;;12.30;84.90;;;;;;5020337;28;20022;-90
2022/04/07 01:55:01;;;;;;;3.60;0.70;;;12.30;84.90;;;;;;5052237;28;20062;-90
2022/04/07 01:57:28;;;;;;;1.00;0.50;;;12.40;84.70;;;;;;5020202;28;20033;-90
2022/04/07 01:59:54;;;;;;;1.10;0.40;;;12.50;84.60;;;;;;5029151;28;20025;-91
2022/04/07 02:02:23;;;;;;;1.52;0.60;;;12.40;84.50;;;;;;5038773;28;20049;-89
2022/04/07 02:04:58;;;;;;;0.50;0.40;;;12.40;84.80;;;;;;5038581;28;20033;-90
2022/04/07 02:07:32;;;;;;;0.98;0.50;;;12.40;85.10;;;;;;5040017;28;20028;-91
2022/04/07 02:09:59;;;;;;;1.02;0.55;;;12.40;85.30;;;;;;5020763;28;20026;-90
2022/04/07 02:12:29;;;;;;;1.20;0.85;;;12.40;85.60;;;;;;5020155;28;20113;-90
2022/04/07 02:14:55;;;;;;;1.38;0.70;;;12.30;85.80;;;;;;5018053;28;20050;-90
2022/04/07 02:17:22;;;;;;;1.48;0.63;;;12.40;85.80;;;;;;5018818;28;20036;-90
2022/04/07 02:19:55;;;;;;;0.80;0.45;;;12.50;85.90;;;;;;5018539;28;20073;-90
2022/04/07 02:22:21;;;;;;;1.88;0.95;;;12.40;86.00;;;;;;5019008;28;20025;-92
2022/04/07 02:24:48;;;;;;;1.27;0.73;;;12.40;86.10;;;;;;5038211;28;20036;-90
2022/04/07 02:27:14;;;;;;;5.65;1.38;;;12.40;86.20;;;;;;5034341;28;20045;-90
2022/04/07 02:29:42;;;;;;;5.63;1.27;;;12.40;85.90;;;;;;5019195;28;20028;-90
2022/04/07 02:32:09;;;;;;;5.75;1.23;;;12.40;86.30;;;;;;5018214;28;20033;-88
2022/04/07 02:34:35;;;;;;;3.25;0.95;;;12.30;86.40;;;;;;5018365;28;20072;-89
2022/04/07 02:37:01;;;;;;;7.57;1.50;;;12.40;86.00;;;;;;5033335;28;20033;-91
2022/04/07 02:39:27;;;;;;;9.32;1.45;;;12.30;85.80;;;;;;5038142;28;20475;-86
2022/04/07 02:41:53;;;;;;;7.05;1.27;;;12.30;85.00;;;;;;5037319;28;20056;-90
2022/04/07 02:44:20;;;;;;;5.22;1.10;;;12.30;85.30;;;;;;5033072;28;20026;-90
2022/04/07 02:46:45;;;;;;;4.78;1.95;;;12.30;85.20;;;;;;5018503;28;20548;-90
2022/04/07 02:49:11;;;;;;;9.15;1.60;;;12.30;85.40;;;;;;5037008;28;20047;-90
2022/04/07 02:51:37;;;;;;;6.95;1.98;;;12.30;85.10;;;;;;5038770;28;20021;-89
2022/04/07 02:54:02;;;;;;;6.30;1.75;;;12.30;85.10;;;;;;5036875;28;20033;-88
2022/04/07 02:56:29;;;;;;;6.22;2.10;;;12.30;85.20;;;;;;5037417;28;20037;-87
2022/04/07 02:58:56;;;;;;;11.85;2.97;;;12.30;84.90;;;;;;5038655;28;20101;-87
2022/04/07 03:01:22;;;;;;;13.90;3.28;;;12.30;85.00;;;;;;5035957;28;20021;-87
2022/04/07 03:03:55;;;;;;;14.70;2.25;;;12.40;84.80;;;;;;5038603;28;20036;-86
2022/04/07 03:06:21;;;;;;;10.20;2.45;;;12.30;84.70;;;;;;5037052;28;20025;-90
2022/04/07 03:08:47;;;;;;;12.02;3.42;;;12.30;84.60;;;;;;5024130;28;20037;-90
2022/04/07 03:11:13;;;;;;;10.43;2.42;;;12.30;84.50;;;;;;5017085;28;20480;-89
2022/04/07 03:13:39;;;;;;;9.15;2.38;;;12.30;84.40;;;;;;5017453;28;20026;-87
2022/04/07 03:16:06;;;;;;;10.75;2.45;;;12.40;83.90;;;;;;5017220;28;20108;-88
2022/04/07 03:18:32;;;;;;;8.77;1.90;;;12.30;84.10;;;;;;5017390;28;20038;-88
2022/04/07 03:20:58;;;;;;;12.85;2.28;;;12.30;84.20;;;;;;5016852;28;20152;-89
2022/04/07 03:23:24;;;;;;;11.10;2.88;;;12.30;84.00;;;;;;5018853;28;20068;-89
2022/04/07 03:25:50;;;;;;;7.30;2.15;;;12.30;84.30;;;;;;5017736;28;20968;-88
2022/04/07 03:28:16;;;;;;;12.15;2.28;;;12.30;84.20;;;;;;5016752;28;20041;-88
2022/04/07 03:30:42;;;;;;;7.57;1.88;;;12.20;84.60;;;;;;5016766;28;20025;-90
2022/04/07 03:33:07;;;;;;;6.22;1.55;;;12.30;84.80;;;;;;5016562;28;20487;-89
2022/04/07 03:35:34;;;;;;;8.55;2.00;;;12.30;84.70;;;;;;5018455;28;20129;-90
2022/04/07 03:38:00;;;;;;;7.55;2.08;;;12.30;84.70;;;;;;5017772;28;20400;-89
2022/04/07 03:40:26;;;;;;;9.88;2.70;;;12.20;85.20;;;;;;5027992;28;20029;-89
2022/04/07 03:42:52;;;;;;;9.60;2.05;;;12.20;85.50;;;;;;5036487;28;20029;-89
2022/04/07 03:45:18;;;;;;;12.32;2.30;;;12.20;85.70;;;;;;5032895;28;20400;-88
2022/04/07 03:47:44;;;;;;;9.35;1.88;;;12.20;85.70;;;;;;5018435;28;20030;-91
2022/04/07 03:50:10;;;;;;;8.38;1.92;;;12.20;85.90;;;;;;5022277;28;20049;-90
2022/04/07 03:52:36;;;;;;;7.32;1.73;;;12.30;86.20;;;;;;5022442;28;20044;-87
2022/04/07 03:55:03;;;;;;;9.82;2.38;;;12.30;86.00;;;;;;5016753;28;20022;-88
2022/04/07 03:57:29;;;;;;;11.10;1.92;;;12.30;86.20;;;;;;5017296;28;20136;-86
2022/04/07 03:59:54;;;;;;;7.03;1.60;;;12.30;86.50;;;;;;5027121;28;20061;-88
2022/04/07 04:02:20;;;;;;;7.65;1.92;;;12.30;86.40;;;;;;5035774;28;20079;-90
2022/04/07 04:04:46;;;;;;;5.97;2.40;;;12.30;86.70;;;;;;5035804;28;20021;-90
2022/04/07 04:07:11;;;;;;;5.85;2.30;;;12.30;86.70;;;;;;5030777;28;20026;-89
2022/04/07 04:09:37;;;;;;;5.13;2.25;;;12.30;86.80;;;;;;5017985;28;20034;-89
2022/04/07 04:12:03;;;;;;;5.93;1.88;;;12.30;86.90;;;;;;5032705;28;20065;-89
2022/04/07 04:14:29;;;;;;;7.45;2.28;;;12.30;87.00;;;;;;5016022;28;20050;-88
2022/04/07 04:16:55;;;;;;;6.72;1.67;;;12.30;86.80;;;;;;5017216;28;20045;-91
2022/04/07 04:19:21;;;;;;;3.88;1.05;;;12.40;86.80;;;;;;5032747;28;20084;-90
2022/04/07 04:21:47;;;;;;;5.00;2.05;;;12.30;86.70;;;;;;5032475;28;20042;-91
2022/04/07 04:24:12;;;;;;;7.28;1.98;;;12.40;87.00;;;;;;5017274;28;20080;-90
2022/04/07 04:26:38;;;;;;;8.43;1.88;;;12.40;86.90;;;;;;5035068;28;20040;-89
2022/04/07 04:29:04;;;;;;;6.20;1.42;;;12.40;86.90;;;;;;5037054;28;20025;-87
2022/04/07 04:31:30;;;;;;;4.43;1.63;;;12.50;86.80;;;;;;5037024;28;20033;-90
2022/04/07 04:33:56;;;;;;;7.35;1.60;;;12.50;86.90;;;;;;5020428;28;20552;-88
2022/04/07 04:36:22;;;;;;;4.90;1.75;;;12.60;86.90;;;;;;5016007;28;20472;-89
2022/04/07 04:38:48;;;;;;;4.00;1.13;;;12.60;86.70;;;;;;5029282;28;20111;-90
2022/04/07 04:41:15;;;;;;;4.70;1.30;;;12.60;86.90;;;;;;5016923;28;20040;-90
2022/04/07 04:43:41;;;;;;;5.85;1.15;;;12.60;86.70;;;;;;5016589;28;20033;-85
2022/04/07 04:46:07;;;;;;;4.35;1.27;;;12.70;87.00;;;;;;5016064;28;20026;-86
2022/04/07 04:53:07;;;;;;;3.70;2.05;;;12.50;87.80;;;;;;5065271;28;20429;-79
2022/04/07 04:55:32;;;;;;;4.28;1.63;;;12.50;88.10;;;;;;5052407;28;20055;-81
2022/04/07 04:57:58;;;;;;;2.20;1.48;;;12.50;88.00;;;;;;5052223;28;20499;-79
2022/04/07 05:00:24;;;;;;;6.45;1.42;;;12.60;88.10;;;;;;5065447;28;20107;-79
2022/04/07 05:02:49;;;;;;;2.80;1.15;;;12.70;88.00;;;;;;5067908;28;20035;-78
2022/04/07 05:05:15;;;;;;;7.88;1.73;;;12.70;88.00;;;;;;5063482;28;20028;-78
2022/04/07 05:07:41;;;;;;;4.40;1.00;;;12.80;88.00;;;;;;5063004;28;20029;-79
2022/04/07 05:10:07;;;;;;;3.80;1.30;;;12.80;87.70;;;;;;5066848;28;20051;-80
2022/04/07 05:12:33;;;;;;;3.72;1.40;;;12.80;87.60;;;;;;5067854;28;20930;-84
2022/04/07 05:14:58;;;;;;;3.10;1.00;;;12.80;87.60;;;;;;5070478;28;20024;-83
2022/04/07 05:17:24;;;;;;;3.33;0.95;;;12.80;87.50;;;;;;5064327;28;20087;-83
2022/04/07 05:19:49;;;;;;;4.00;1.23;;;12.80;87.40;;;;;;5058175;28;20395;-82
2022/04/07 05:22:15;;;;;;;2.88;0.90;;;12.90;87.20;;;;;;5069912;28;20021;-81
2022/04/07 05:24:41;;;;;;;1.63;0.82;;;12.90;86.90;;;;;;5070536;28;20039;-82
2022/04/07 05:27:06;;;;;;;1.65;0.70;;;12.90;86.80;;;;;;5071166;28;20086;-79
2022/04/07 05:29:32;;;;;;;3.20;0.85;;;13.00;86.90;;;;;;5063065;28;20029;-86
2022/04/07 05:31:58;;;;;;;1.02;0.60;;;12.90;87.30;;;;;;5064789;28;20209;-85
2022/04/07 05:34:23;;;;;;;1.20;0.50;;;13.00;87.30;;;;;;5063412;28;20040;-84
2022/04/07 05:36:49;;;;;;;1.73;0.85;;;12.90;87.20;;;;;;5069839;28;20363;-84
2022/04/07 05:39:15;;;;;;;3.17;0.93;;;13.00;87.20;;;;;;5070669;28;20103;-85
2022/04/07 05:41:41;;;;;;;2.17;1.33;;;13.10;87.20;;;;;;5068027;28;20036;-84
2022/04/07 05:44:07;;;;;;;2.00;0.80;;;13.00;87.20;;;;;;5055747;28;20026;-84
2022/04/07 05:46:32;;;;;;;1.85;1.00;;;13.10;87.20;;;;;;5048826;28;20025;-84
2022/04/07 05:48:58;;;;;;;3.97;1.00;;;13.10;87.30;;;;;;5050269;28;20089;-84
2022/04/07 05:51:23;;;;;;;1.25;0.57;;;13.20;87.40;;;;;;5049912;28;20055;-84
2022/04/07 05:53:49;;;;;;;3.92;0.90;;;13.20;87.20;;;;;;5050095;28;20119;-85
2022/04/07 05:56:15;;;;;;;1.33;0.80;;;13.20;87.10;;;;;;5049664;28;20096;-85
2022/04/07 05:58:40;;;;;;;2.13;0.75;;;13.20;87.10;;;;;;5048568;28;20036;-84
2022/04/07 06:01:06;;;;;;;1.08;0.80;;;13.20;86.90;;;;;;5069861;28;20115;-84
2022/04/07 06:03:32;;;;;;;1.63;0.65;;;13.20;86.90;;;;;;5061187;28;20028;-84
2022/04/07 06:05:58;;;;;;;0.82;0.60;;;13.30;86.60;;;;;;5058183;28;20506;-85
2022/04/07 06:08:24;;;;;;;1.63;0.70;;;13.30;86.60;;;;;;5052717;28;20025;-85
2022/04/07 06:10:50;;;;;;;2.13;0.73;;;13.40;86.60;;;;;;5073107;28;20401;-84
2022/04/07 06:13:16;;;;;;;1.95;0.68;;;13.50;86.60;;;;;;5056563;28;20025;-84
2022/04/07 06:15:42;;;;;;;1.63;0.60;;;13.40;86.90;;;;;;5051890;28;20040;-84
2022/04/07 06:18:07;;;;;;;2.80;0.90;;;13.50;87.20;;;;;;5036335;28;20056;-85
2022/04/07 06:20:33;;;;;;;2.55;0.70;;;13.50;87.40;;;;;;5052868;28;20036;-85
2022/04/07 06:23:00;;;;;;;3.65;0.90;;;13.40;87.60;;;;;;5052819;28;20026;-84
2022/04/07 06:25:26;;;;;;;2.95;0.85;;;13.40;87.70;;;;;;5088990;28;20043;-84
2022/04/07 06:27:52;;;;;;;1.38;0.68;;;13.50;87.40;;;;;;5056052;28;20025;-84
2022/04/07 06:30:20;;;;;;;4.50;0.70;;;13.50;87.10;;;;;;5057254;28;20111;-84
2022/04/07 06:32:46;;;;;;;1.60;0.70;;;13.60;86.90;;;;;;5057214;28;20025;-84
2022/04/07 06:35:14;;;;;;;1.48;0.90;;;13.60;86.40;;;;;;5035841;28;20049;-85
2022/04/07 06:37:51;;;;;;;3.38;1.23;;;13.70;86.20;;;;;;5037345;28;20026;-85
2022/04/07 06:40:19;;;;;;;2.72;0.68;;;13.70;85.30;;;;;;5036890;28;20025;-85
2022/04/07 06:42:45;;;;;;;3.45;0.90;;;13.80;85.00;;;;;;5037436;28;20029;-85
2022/04/07 06:45:10;;;;;;;3.85;1.25;;;14.00;84.60;;;;;;5035770;28;20072;-85
2022/04/07 06:47:38;;;;;;;1.80;1.15;;;14.00;83.70;;;;;;5043831;28;20104;-85
2022/04/07 06:50:04;;;;;;;2.33;0.88;;;14.10;83.30;;;;;;5055593;28;20033;-85
2022/04/07 06:52:30;;;;;;;6.53;1.13;;;14.20;83.40;;;;;;5053017;28;20043;-85
2022/04/07 06:54:56;;;;;;;2.53;1.13;;;14.20;82.80;;;;;;5035572;28;20436;-85
2022/04/07 06:57:21;;;;;;;3.25;1.00;;;14.30;82.70;;;;;;5037053;28;20079;-85
2022/04/07 06:59:47;;;;;;;3.53;0.70;;;14.40;81.90;;;;;;5045482;28;20494;-85
2022/04/07 07:02:13;;;;;;;3.45;0.80;;;14.30;81.30;;;;;;5055757;28;20025;-85
2022/04/07 07:04:38;;;;;;;1.88;0.88;;;14.50;81.70;;;;;;5051140;28;20026;-85
2022/04/07 07:07:04;;;;;;;4.60;1.67;;;14.60;81.00;;;;;;5052448;28;20026;-85
2022/04/07 07:09:29;;;;;;;4.63;1.10;;;14.60;80.30;;;;;;5036741;28;20026;-85
2022/04/07 07:11:55;;;;;;;8.45;1.70;;;14.50;80.00;;;;;;5048991;28;20400;-85
2022/04/07 07:14:21;;;;;;;5.53;1.17;;;14.50;79.60;;;;;;5039646;28;20032;-85
2022/04/07 07:16:48;;;;;;;3.35;1.23;;;14.40;79.90;;;;;;5035324;28;20043;-85
2022/04/07 07:19:15;;;;;;;5.72;1.13;;;14.40;80.50;;;;;;5035229;28;20029;-85
2022/04/07 07:21:41;;;;;;;5.78;1.38;;;14.30;80.10;;;;;;5035508;28;20116;-86
2022/04/07 07:24:07;;;;;;;4.10;1.25;;;14.30;80.10;;;;;;5035042;28;20072;-85
2022/04/07 07:26:33;;;;;;;4.93;1.30;;;14.30;80.20;;;;;;5036403;28;20036;-85
2022/04/07 07:28:59;;;;;;;5.32;1.40;;;14.30;80.40;;;;;;5036788;28;20111;-84
2022/04/07 07:31:25;;;;;;;9.23;1.20;;;14.30;80.70;;;;;;5036616;28;20089;-86
2022/04/07 07:33:50;;;;;;;3.88;1.23;;;14.20;80.20;;;;;;5035750;28;20033;-85
2022/04/07 07:36:16;;;;;;;2.45;1.30;;;14.20;80.70;;;;;;5034854;28;20108;-85
2022/04/07 07:38:41;;;;;;;2.67;0.93;;;14.20;80.90;;;;;;5035163;28;20424;-85
2022/04/07 07:41:07;;;;;;;3.38;1.15;;;14.20;81.20;;;;;;5035009;28;20108;-85
2022/04/07 07:43:33;;;;;;;6.70;1.40;;;14.20;81.50;;;;;;5036250;28;20034;-85
2022/04/07 07:45:59;;;;;;;5.05;1.23;;;14.20;81.60;;;;;;5034904;28;20029;-85
2022/04/07 07:48:28;;;;;;;3.92;1.65;;;14.30;81.90;;;;;;5049271;28;20043;-84
2022/04/07 07:50:55;;;;;;;8.40;1.70;;;14.20;82.00;;;;;;5037927;28;20051;-85
2022/04/07 07:53:21;;;;;;;8.10;2.00;;;14.10;82.80;;;;;;5034533;28;20025;-85
2022/04/07 07:55:48;;;;;;;5.10;2.25;;;14.10;83.20;;;;;;5055470;28;20028;-85
2022/04/07 07:58:13;;;;;;;5.80;1.75;;;14.10;83.10;;;;;;5044593;28;20034;-86
2022/04/07 08:00:39;;;;;;;10.38;1.92;;;14.10;82.80;;;;;;5049929;28;20056;-85
2022/04/07 08:03:05;;;;;;;4.95;1.58;;;14.20;82.50;;;;;;5047136;28;20038;-85
2022/04/07 08:05:31;;;;;;;10.02;2.33;;;14.30;82.30;;;;;;5034314;28;20028;-85
2022/04/07 08:07:57;;;;;;;5.18;1.75;;;14.30;81.90;;;;;;5035870;28;20033;-85
2022/04/07 08:10:22;;;;;;;5.93;1.75;;;14.30;81.60;;;;;;5035308;28;20029;-85
2022/04/07 08:12:48;;;;;;;7.25;1.75;;;14.50;81.80;;;;;;5054816;28;20056;-85
2022/04/07 08:15:14;;;;;;;10.95;2.17;;;14.50;81.30;;;;;;5050415;28;20028;-85
2022/04/07 08:17:40;;;;;;;6.97;1.63;;;14.50;81.00;;;;;;5034449;28;20059;-85
2022/04/07 08:20:07;;;;;;;7.97;1.55;;;14.60;80.60;;;;;;5033899;28;20087;-85
2022/04/07 08:22:33;;;;;;;11.35;2.13;;;14.70;80.30;;;;;;5035433;28;20021;-85
2022/04/07 08:24:59;;;;;;;7.45;1.73;;;14.80;79.60;;;;;;5035157;28;20108;-85
2022/04/07 08:27:24;;;;;;;6.78;1.70;;;15.00;79.20;;;;;;5035139;28;20057;-85
2022/04/07 08:29:51;;;;;;;7.10;1.95;;;15.30;78.70;;;;;;5042373;28;20028;-85
2022/04/07 08:32:17;;;;;;;7.95;1.50;;;15.60;78.30;;;;;;5053781;28;20043;-85
2022/04/07 08:34:43;;;;;;;6.35;1.95;;;15.80;77.30;;;;;;5055106;28;20021;-85
2022/04/07 08:37:08;;;;;;;8.50;1.88;;;15.80;77.10;;;;;;5055147;28;20017;-85
2022/04/07 08:39:34;;;;;;;11.35;1.92;;;16.00;76.40;;;;;;5035533;28;20029;-85
2022/04/07 08:42:04;;;;;;;7.53;2.42;;;15.80;77.30;;;;;;5035195;28;20047;-85
2022/04/07 08:44:33;;;;;;;5.68;1.88;;;15.80;77.80;;;;;;5036991;28;20033;-84
2022/04/07 08:47:00;;;;;;;9.23;2.60;;;15.80;78.20;;;;;;5054596;28;20066;-85
2022/04/07 08:49:29;;;;;;;6.35;1.73;;;16.00;77.70;;;;;;5053951;28;20495;-85
2022/04/07 08:51:55;;;;;;;8.88;2.00;;;16.40;77.50;;;;;;5051361;28;20053;-86
2022/04/07 08:54:22;;;;;;;7.95;1.92;;;16.70;77.00;;;;;;5033803;28;20033;-84
2022/04/07 08:56:48;;;;;;;7.28;1.95;;;16.80;76.10;;;;;;5045689;28;20029;-85
2022/04/07 08:59:15;;;;;;;6.47;2.25;;;16.80;75.70;;;;;;5054897;28;20507;-84
2022/04/07 09:01:40;;;;;;;5.07;1.65;;;16.70;75.90;;;;;;5053867;28;20041;-86
2022/04/07 09:04:06;;;;;;;5.72;1.80;;;16.80;74.80;;;;;;5053169;28;20028;-84
2022/04/07 09:06:35;;;;;;;9.48;2.00;;;17.00;75.10;;;;;;5053562;28;20025;-84
2022/04/07 09:09:19;;;;;;;7.80;2.28;;;17.30;74.10;;;;;;5053567;28;20491;-84
2022/04/07 09:11:45;;;;;;;7.35;1.73;;;17.70;73.50;;;;;;5044153;28;20049;-85
2022/04/07 09:14:11;;;;;;;4.38;1.50;;;17.90;72.10;;;;;;5047318;28;20439;-85
2022/04/07 09:16:39;;;;;;;6.47;1.45;;;17.90;71.60;;;;;;5034809;28;20021;-85
2022/04/07 09:19:06;;;;;;;6.63;1.27;;;18.00;71.40;;;;;;5034702;28;20022;-84
2022/04/07 09:21:32;;;;;;;8.30;1.58;;;18.00;71.50;;;;;;5034530;28;20038;-85
2022/04/07 09:24:00;;;;;;;4.05;1.50;;;17.80;72.30;;;;;;5035094;28;20431;-85
2022/04/07 09:26:27;;;;;;;6.28;1.67;;;17.50;72.20;;;;;;5034625;28;20041;-85
2022/04/07 09:28:57;;;;;;;3.00;1.13;;;17.30;72.60;;;;;;5033248;28;20112;-85
2022/04/07 09:31:23;;;;;;;6.60;2.03;;;17.10;72.70;;;;;;5050684;28;20108;-84
2022/04/07 09:33:56;;;;;;;5.88;2.55;;;16.90;73.20;;;;;;5054802;28;20487;-86
2022/04/07 09:36:23;;;;;;;5.75;2.90;;;16.90;73.10;;;;;;5046475;28;20673;-85
2022/04/07 09:38:54;;;;;;;5.03;1.08;;;16.90;74.20;;;;;;5050174;28;20029;-84
2022/04/07 09:41:21;;;;;;;4.95;1.20;;;17.00;73.40;;;;;;5038284;28;20033;-84
2022/04/07 09:43:53;;;;;;;4.70;1.25;;;16.90;73.60;;;;;;5037160;28;20025;-85
2022/04/07 09:46:20;;;;;;;3.53;1.08;;;16.70;73.80;;;;;;5036962;28;20029;-85
2022/04/07 09:49:03;;;;;;;3.05;0.73;;;16.60;74.20;;;;;;5055907;28;20020;-84
2022/04/07 09:51:30;;;;;;;1.65;0.52;;;16.30;73.50;;;;;;5052545;28;20064;-84
2022/04/07 09:53:57;;;;;;;1.75;0.70;;;16.20;74.10;;;;;;5051861;28;20029;-85
2022/04/07 09:56:30;;;;;;;4.32;1.20;;;16.10;73.50;;;;;;5036482;28;20029;-84
2022/04/07 09:58:56;;;;;;;2.00;0.68;;;16.10;74.00;;;;;;5037882;28;20128;-85
2022/04/07 10:01:23;;;;;;;1.63;0.60;;;16.10;73.50;;;;;;5058001;28;20479;-86
2022/04/07 10:03:50;;;;;;;2.17;0.70;;;16.20;73.60;;;;;;5057946;28;20435;-85
2022/04/07 10:06:17;;;;;;;1.33;0.60;;;16.30;73.50;;;;;;5052551;28;20025;-86
2022/04/07 10:08:46;;;;;;;1.15;0.57;;;16.30;72.40;;;;;;5036626;28;20083;-86
2022/04/07 10:11:13;;;;;;;1.03;0.43;;;16.20;72.90;;;;;;5055994;28;20033;-85
2022/04/07 10:13:41;;;;;;;2.33;0.75;;;16.40;71.70;;;;;;5056369;28;20040;-85
2022/04/07 10:16:09;;;;;;;2.03;0.70;;;16.60;71.50;;;;;;5052006;28;20056;-85
2022/04/07 10:18:59;;;;;;;1.13;0.70;;;16.70;70.70;;;;;;5053289;28;20026;-85
2022/04/07 10:22:14;;;;;;;1.10;0.70;;;17.00;70.80;;;;;;5053337;28;20136;-85
2022/04/07 10:24:45;;;;;;;1.90;0.85;;;16.90;70.30;;;;;;5036873;28;20125;-85
2022/04/07 10:27:12;;;;;;;2.10;1.05;;;16.90;69.40;;;;;;5035935;28;20033;-85
2022/04/07 10:29:38;;;;;;;1.98;1.02;;;16.90;69.80;;;;;;5037422;28;20029;-85
2022/04/07 10:32:13;;;;;;;1.35;0.55;;;16.80;69.80;;;;;;5037579;28;20488;-85
2022/04/07 10:34:43;;;;;;;1.33;0.80;;;16.40;69.90;;;;;;5036016;28;20044;-86
2022/04/07 10:37:11;;;;;;;1.63;1.03;;;16.30;70.00;;;;;;5036008;28;20026;-85
2022/04/07 10:39:41;;;;;;;1.15;0.80;;;16.20;70.70;;;;;;5035966;28;20107;-85
2022/04/07 10:42:09;;;;;;;0.90;0.60;;;16.30;68.90;;;;;;5038438;28;20026;-84
2022/04/07 10:44:36;;;;;;;2.05;0.90;;;16.50;69.40;;;;;;5056808;28;20025;-85
2022/04/07 10:47:03;;;;;;;1.20;0.70;;;16.40;69.30;;;;;;5049799;28;20040;-85
2022/04/07 10:49:30;;;;;;;1.92;0.80;;;16.10;69.70;;;;;;5057061;28;20039;-85
2022/04/07 10:51:58;;;;;;;0.73;0.45;;;16.30;69.30;;;;;;5055276;28;20065;-84
2022/04/07 10:54:28;;;;;;;0.95;0.50;;;16.30;69.30;;;;;;5051782;28;20479;-84
2022/04/07 10:57:01;;;;;;;2.65;0.70;;;16.20;68.90;;;;;;5037023;28;20036;-84
2022/04/07 10:59:34;;;;;;;2.97;0.70;;;16.10;68.30;;;;;;5055455;28;20064;-84
2022/04/07 11:02:06;;;;;;;1.30;0.55;;;15.90;68.10;;;;;;5056932;28;20025;-85
2022/04/07 11:04:32;;;;;;;2.08;0.40;;;15.90;67.80;;;;;;5041932;28;20678;-85
2022/04/07 11:09:53;;;;;;;;;;;15.80;67.90;;;;;;5037569;28;20026;-85
2022/04/07 11:12:29;;;;;;;1.27;0.60;;;15.90;66.70;;;;;;5068844;28;19941;-85
2022/04/07 11:15:01;;;;;;;1.70;0.60;;;16.00;67.10;;;;;;5036650;28;20030;-85
2022/04/07 11:17:34;;;;;;;1.48;0.60;;;16.30;67.30;;;;;;5036187;28;20025;-84
2022/04/07 11:20:05;;;;;;;1.83;0.88;;;16.50;65.50;;;;;;5036114;28;20033;-85
2022/04/07 11:22:54;;;;;;;1.05;0.52;;;16.50;65.90;;;;;;5035292;28;20022;-85
2022/04/07 11:25:29;;;;;;;1.05;0.60;;;16.50;65.30;;;;;;5035306;28;20036;-84
2022/04/07 11:28:17;;;;;;;3.47;0.90;;;16.40;66.00;;;;;;5036521;28;20025;-85
2022/04/07 11:31:04;;;;;;;1.65;0.90;;;16.70;66.40;;;;;;5036604;28;20064;-85
2022/04/07 11:33:36;;;;;;;1.48;0.90;;;16.70;65.00;;;;;;5036326;28;20025;-85
2022/04/07 11:36:04;;;;;;;2.70;1.17;;;16.80;65.60;;;;;;5036190;28;20067;-85
2022/04/07 11:38:38;;;;;;;2.30;1.10;;;17.10;64.90;;;;;;5036122;28;20033;-85
2022/04/07 11:41:05;;;;;;;3.30;1.58;;;17.30;65.10;;;;;;5034843;28;20109;-84
2022/04/07 11:43:33;;;;;;;2.45;1.17;;;17.50;64.00;;;;;;5034690;28;20048;-84
2022/04/07 11:45:59;;;;;;;2.40;1.30;;;17.70;61.80;;;;;;5034987;28;20033;-85
2022/04/07 11:48:30;;;;;;;3.08;0.95;;;17.90;62.20;;;;;;5050575;28;20087;-83
2022/04/07 11:51:00;;;;;;;3.70;0.95;;;18.20;62.70;;;;;;5052754;28;20056;-84
2022/04/07 11:53:27;;;;;;;5.05;0.93;;;18.30;60.20;;;;;;5034577;28;20029;-84
2022/04/07 11:55:53;;;;;;;2.85;0.70;;;18.20;58.60;;;;;;5035845;28;20037;-84
2022/04/07 11:58:19;;;;;;;4.60;0.98;;;17.80;59.50;;;;;;5035750;28;20035;-84
2022/04/07 12:00:45;;;;;;;2.95;0.85;;;17.50;60.70;;;;;;5034772;28;20053;-84
2022/04/07 12:03:11;;;;;;;2.78;0.90;;;17.70;61.00;;;;;;5035517;28;20084;-84
2022/04/07 12:05:40;;;;;;;3.33;0.98;;;17.70;60.40;;;;;;5035733;28;20056;-84
2022/04/07 12:08:16;;;;;;;4.90;1.00;;;17.50;59.50;;;;;;5035090;28;20448;-84
2022/04/07 12:10:44;;;;;;;4.22;1.20;;;17.60;60.10;;;;;;5036538;28;20030;-85
2022/04/07 12:13:10;;;;;;;2.10;1.20;;;17.20;61.00;;;;;;5055397;28;20037;-84
2022/04/07 12:15:37;;;;;;;4.30;0.88;;;17.20;61.80;;;;;;5054511;28;20521;-85
2022/04/07 12:18:06;;;;;;;2.80;0.80;;;17.30;61.30;;;;;;5049871;28;20037;-84
2022/04/07 12:20:33;;;;;;;3.63;0.93;;;17.40;61.80;;;;;;5044180;28;20029;-84
2022/04/07 12:23:07;;;;;;;2.85;0.88;;;17.50;60.70;;;;;;5035562;28;20033;-84
2022/04/07 12:25:33;;;;;;;2.03;0.77;;;17.80;61.00;;;;;;5033956;28;20112;-84
2022/04/07 12:28:13;;;;;;;1.70;0.68;;;18.10;59.20;;;;;;5033958;28;20064;-84
2022/04/07 12:30:56;;;;;;;1.27;0.47;;;18.60;58.40;;;;;;5035456;28;20025;-83
2022/04/07 12:33:44;;;;;;;1.92;0.55;;;18.80;55.80;;;;;;5035276;28;20080;-83
2022/04/07 12:36:11;;;;;;;1.58;0.60;;;18.90;54.90;;;;;;5049956;28;20064;-84
2022/04/07 12:38:38;;;;;;;2.05;0.57;;;19.20;55.70;;;;;;5055444;28;20021;-84
2022/04/07 12:41:13;;;;;;;3.70;0.40;;;19.30;55.40;;;;;;5054890;28;20109;-83
2022/04/07 12:43:53;;;;;;;0.68;0.30;;;19.30;54.60;;;;;;5053984;28;20027;-84
2022/04/07 12:46:20;;;;;;;1.70;0.30;;;19.10;52.80;;;;;;5034132;28;20025;-83
2022/04/07 12:49:06;;;;;;;1.05;0.65;;;19.00;52.00;;;;;;5051542;28;20049;-84
2022/04/07 12:51:37;;;;;;;2.00;0.50;;;18.70;52.70;;;;;;5054841;28;20075;-83
2022/04/07 12:54:14;;;;;;;1.90;0.50;;;18.60;53.30;;;;;;5053089;28;20116;-84
2022/04/07 12:56:44;;;;;;;0.95;0.40;;;18.70;54.70;;;;;;5054938;28;20025;-84